Terminal Aerodrome Forecast
Issued by NWS

Home | Current Version | Previous Version | Text Only | Print | Product List | Glossary On
Versions: 1 2 3 4 5 6 7 8 9 10 11 12 13 14 15 16 17 18 19 20 21 22 23 24 25
816
FTUS43 KDLH 060215 AAA
TAFHYR
TAF AMD
KHYR 060215Z 0602/0624 19014KT P6SM OVC021
     FM060400 21005KT P6SM -SN OVC025
     FM060800 23002KT P6SM FEW015 BKN100
     FM062100 19009G15KT P6SM BKN050=

USA.gov is the U.S. government's official web portal to all federal, state and local government web resources and services.